Time;durP1;ratioP1;P1;durP2;ratioP2;P2;SDS_P1;SDS_P2;PMS_P1;PMS_P2;Temp;Humidity;BMP_temperature;BMP_pressure;BME280_temperature;BME280_humidity;BME280_pressure;Samples;Min_cycle;Max_cycle;Signal;HPM_P1;HPM_P2
2022/01/12 00:00:23;;;;;;;;;;;;;;;0.26;46.51;101395.91;4400867;32;36206;-78
2022/01/12 00:02:52;;;;;;;;;;;;;;;0.35;45.88;101403.50;4399023;32;34279;-78
2022/01/12 00:05:20;;;;;;;;;;;;;;;0.37;46.08;101397.34;4401851;32;33258;-78
2022/01/12 00:07:50;;;;;;;;;;;;;;;0.25;46.45;101399.41;4400261;32;33730;-78
2022/01/12 00:10:18;;;;;;;;;;;;;;;0.20;46.69;101396.94;4398738;32;34117;-78
2022/01/12 00:12:46;;;;;;;;;;;;;;;0.01;47.61;101400.94;4396581;32;34404;-78
2022/01/12 00:15:14;;;;;;;;;;;;;;;0.14;47.32;101406.69;4404188;32;33198;-78
2022/01/12 00:17:43;;;;;;;;;;;;;;;0.02;47.15;101399.19;4398685;32;33996;-77
2022/01/12 00:20:10;;;;;;;;;;;;;;;-0.30;48.21;101403.50;4398845;32;35096;-77
2022/01/12 00:22:40;;;;;;;;;;;;;;;-0.04;47.50;101398.50;4406426;32;34544;-78
2022/01/12 00:25:24;;;;;;;;;;;;;;;-0.38;48.64;101408.91;4395847;32;33505;-78
2022/01/12 00:33:25;;;;;;;;;;;;;;;-0.02;47.41;101418.47;4410670;32;34298;-78
2022/01/12 00:35:54;;;;;;;;;;;;;;;0.05;47.33;101407.81;4413503;32;33117;-78
2022/01/12 00:38:25;;;;;;;;;;;;;;;-0.13;47.91;101417.03;4413211;32;34208;-78
2022/01/12 00:40:53;;;;;;;;;;;;;;;0.01;47.24;101411.38;4399426;32;33928;-78
2022/01/12 00:43:22;;;;;;;;;;;;;;;0.07;47.52;101424.31;4415235;32;34514;-78
2022/01/12 00:45:50;;;;;;;;;;;;;;;-0.03;47.55;101424.59;4400743;32;33147;-78
2022/01/12 00:48:18;;;;;;;;;;;;;;;-0.07;47.52;101417.72;4410313;32;33858;-78
2022/01/12 00:50:46;;;;;;;;;;;;;;;-0.15;47.80;101421.41;4412645;32;35157;-78
2022/01/12 00:53:15;;;;;;;;;;;;;;;-0.21;48.04;101418.97;4413439;32;35336;-78
2022/01/12 00:55:44;;;;;;;;;;;;;;;-0.19;48.15;101430.25;4416715;32;34088;-78
2022/01/12 00:58:11;;;;;;;;;;;;;;;-0.22;48.68;101423.34;4413373;32;33651;-78
2022/01/12 01:00:39;;;;;;;;;;;;;;;-0.15;48.67;101434.50;4414022;32;35573;-78
2022/01/12 01:03:08;;;;;;;;;;;;;;;-0.16;48.29;101425.81;4401699;32;34563;-78
2022/01/12 01:05:39;;;;;;;;;;;;;;;-0.12;47.59;101431.81;4415329;32;34099;-78
2022/01/12 01:08:07;;;;;;;;;;;;;;;-0.43;47.99;101429.09;4414944;32;35109;-78
2022/01/12 01:13:09;;;;;;;;;;;;;;;-0.35;48.13;101426.28;4412575;32;34838;-78
2022/01/12 01:26:39;;;;;;;;;;;;;;;-0.50;48.43;101429.28;4415430;32;34066;-78
2022/01/12 01:29:08;;;;;;;;;;;;;;;-0.42;47.91;101435.16;4414105;32;33590;-79
2022/01/12 01:31:36;;;;;;;;;;;;;;;-0.48;47.80;101432.72;4413028;32;35242;-78
2022/01/12 01:34:10;;;;;;;;;;;;;;;-0.68;48.62;101432.31;4400062;32;34893;-79
2022/01/12 01:36:39;;;;;;;;;;;;;;;-0.75;48.92;101431.56;4405586;32;33335;-79
2022/01/12 01:39:08;;;;;;;;;;;;;;;-0.64;48.69;101440.06;4400578;32;31892;-79
2022/01/12 01:41:38;;;;;;;;;;;;;;;-0.80;49.71;101436.06;4403436;32;35963;-78
2022/01/12 01:54:59;;;;;;;;;;;;;;;-1.11;51.09;101455.91;4402099;32;34593;-79
2022/01/12 01:57:27;;;;;;;;;;;;;;;-1.00;50.50;101453.91;4412856;32;33310;-78
2022/01/12 01:59:54;;;;;;;;;;;;;;;-1.09;50.77;101450.63;4401767;32;33678;-79
2022/01/12 02:02:22;;;;;;;;;;;;;;;-1.00;50.51;101455.66;4399373;32;34681;-79
2022/01/12 02:04:51;;;;;;;;;;;;;;;-1.07;50.34;101448.84;4412907;32;35509;-79
2022/01/12 02:07:18;;;;;;;;;;;;;;;-1.01;50.27;101444.38;4401245;32;33794;-79
2022/01/12 02:09:46;;;;;;;;;;;;;;;-1.05;50.46;101450.53;4394270;32;34081;-78
2022/01/12 02:12:23;;;;;;;;;;;;;;;-1.13;50.56;101452.44;4399579;32;35153;-78
2022/01/12 02:14:51;;;;;;;;;;;;;;;-1.33;51.19;101462.44;4405952;32;34746;-79
2022/01/12 02:17:23;;;;;;;;;;;;;;;-1.17;50.72;101449.91;4393918;32;33354;-79
2022/01/12 02:36:34;;;;;;;;;;;;;;;-1.60;52.86;101456.91;4409409;32;34602;-79
2022/01/12 02:41:49;;;;;;;;;;;;;;;-1.51;52.36;101460.16;4414848;32;34014;-79
2022/01/12 02:55:28;;;;;;;;;;;;;;;-1.79;53.72;101469.41;4410731;32;35350;-79
2022/01/12 02:57:56;;;;;;;;;;;;;;;-1.86;53.82;101473.03;4411849;32;34459;-79
2022/01/12 03:00:31;;;;;;;;;;;;;;;-1.95;54.60;101467.09;4401023;32;33909;-78
2022/01/12 03:03:03;;;;;;;;;;;;;;;-1.95;54.92;101467.09;4411746;32;34141;-79
2022/01/12 03:08:03;;;;;;;;;;;;;;;-1.67;53.94;101465.72;4413889;32;35381;-79
2022/01/12 03:10:31;;;;;;;;;;;;;;;-1.73;54.06;101471.03;4415406;32;33261;-79
2022/01/12 03:13:00;;;;;;;;;;;;;;;-1.81;54.32;101473.78;4401395;32;33916;-79
2022/01/12 03:15:27;;;;;;;;;;;;;;;-1.70;53.74;101469.22;4413026;32;34938;-78
2022/01/12 03:17:55;;;;;;;;;;;;;;;-1.69;53.77;101464.88;4413060;32;35368;-79
2022/01/12 03:20:24;;;;;;;;;;;;;;;-1.66;53.87;101472.66;4376842;32;33848;-78
2022/01/12 03:22:51;;;;;;;;;;;;;;;-1.64;53.82;101471.75;4411832;32;34232;-79
2022/01/12 03:25:19;;;;;;;;;;;;;;;-1.79;54.34;101472.00;4414243;32;34026;-79
2022/01/12 03:27:49;;;;;;;;;;;;;;;-1.85;54.89;101479.09;4401091;32;35001;-79
2022/01/12 03:30:17;;;;;;;;;;;;;;;-1.82;54.45;101479.03;4409420;32;34141;-79
2022/01/12 03:32:50;;;;;;;;;;;;;;;-1.66;53.88;101477.87;4399357;32;34987;-79
2022/01/12 03:35:36;;;;;;;;;;;;;;;-1.90;54.45;101481.78;4388159;32;36297;-78
2022/01/12 03:38:20;;;;;;;;;;;;;;;-2.17;55.40;101479.62;4405299;32;34922;-79
2022/01/12 03:40:48;;;;;;;;;;;;;;;-2.18;55.90;101483.12;4400554;32;32977;-79
2022/01/12 03:43:17;;;;;;;;;;;;;;;-2.14;56.12;101479.59;4399572;32;33616;-79
2022/01/12 03:45:45;;;;;;;;;;;;;;;-1.97;55.77;101468.88;4405055;32;35068;-79
2022/01/12 03:48:14;;;;;;;;;;;;;;;-2.03;56.25;101477.66;4400479;32;35359;-79
2022/01/12 03:50:41;;;;;;;;;;;;;;;-2.06;56.04;101463.81;4413752;32;34057;-79
2022/01/12 03:53:09;;;;;;;;;;;;;;;-2.19;56.77;101470.09;4392573;32;34628;-79
2022/01/12 03:55:37;;;;;;;;;;;;;;;-2.08;56.40;101468.19;4402612;32;34022;-79
2022/01/12 03:58:06;;;;;;;;;;;;;;;-2.01;56.47;101475.88;4406008;32;34647;-79
2022/01/12 04:00:33;;;;;;;;;;;;;;;-1.93;56.30;101481.84;4412048;32;33055;-79
2022/01/12 04:03:03;;;;;;;;;;;;;;;-2.10;57.09;101477.75;4391623;32;35015;-79
2022/01/12 04:08:19;;;;;;;;;;;;;;;-2.17;57.50;101484.00;4408351;32;34152;-79
2022/01/12 04:10:48;;;;;;;;;;;;;;;-2.05;57.14;101492.44;4392672;32;33170;-79
2022/01/12 04:13:18;;;;;;;;;;;;;;;-2.34;57.96;101486.84;4407949;32;32534;-79
2022/01/12 04:15:48;;;;;;;;;;;;;;;-2.15;57.12;101477.84;4400136;32;33363;-78
2022/01/12 04:18:17;;;;;;;;;;;;;;;-1.90;56.21;101479.16;4373333;32;32802;-79
2022/01/12 04:20:49;;;;;;;;;;;;;;;-2.17;56.77;101477.00;4404752;32;34087;-79
2022/01/12 04:23:19;;;;;;;;;;;;;;;-2.03;56.36;101479.41;4386107;32;34250;-79
2022/01/12 04:25:51;;;;;;;;;;;;;;;-2.16;56.53;101486.56;4386054;32;35467;-79
2022/01/12 04:28:20;;;;;;;;;;;;;;;-2.08;56.73;101481.22;4412069;32;35340;-79
2022/01/12 04:30:48;;;;;;;;;;;;;;;-1.87;55.96;101481.72;4393520;32;31523;-79
2022/01/12 04:33:17;;;;;;;;;;;;;;;-1.86;55.49;101488.69;4415123;32;33479;-79
2022/01/12 04:35:49;;;;;;;;;;;;;;;-2.06;56.02;101484.66;4374938;32;810535;-79
2022/01/12 04:38:35;;;;;;;;;;;;;;;-2.01;55.94;101481.09;4400631;32;34733;-79
2022/01/12 04:41:04;;;;;;;;;;;;;;;-1.92;55.55;101488.75;4414986;32;33139;-79
2022/01/12 04:43:32;;;;;;;;;;;;;;;-2.08;55.83;101483.84;4411014;32;35674;-79
2022/01/12 04:48:48;;;;;;;;;;;;;;;-2.09;55.85;101495.13;4413336;32;35440;-79
2022/01/12 04:51:17;;;;;;;;;;;;;;;-2.41;56.76;101502.59;4409656;32;33059;-79
2022/01/12 04:53:45;;;;;;;;;;;;;;;-2.07;55.76;101499.44;4413529;32;34292;-80
2022/01/12 04:56:13;;;;;;;;;;;;;;;-2.03;55.50;101492.44;4400646;32;35396;-79
2022/01/12 04:58:41;;;;;;;;;;;;;;;-2.16;55.78;101501.34;4411050;32;34978;-79
2022/01/12 05:01:21;;;;;;;;;;;;;;;-2.18;55.88;101506.56;4412368;32;31789;-79
2022/01/12 05:14:25;;;;;;;;;;;;;;;-2.42;55.58;101517.38;4412830;32;34044;-79
2022/01/12 05:16:53;;;;;;;;;;;;;;;-2.34;55.48;101520.72;4412674;32;36044;-79
2022/01/12 05:19:21;;;;;;;;;;;;;;;-2.53;56.17;101521.87;4414090;32;34473;-79
2022/01/12 05:21:49;;;;;;;;;;;;;;;-2.40;55.58;101518.22;4411324;32;32863;-79
2022/01/12 05:24:17;;;;;;;;;;;;;;;-2.38;55.54;101519.06;4414668;32;33570;-79
2022/01/12 05:26:45;;;;;;;;;;;;;;;-2.44;55.33;101519.13;4398038;32;36007;-79
2022/01/12 05:29:13;;;;;;;;;;;;;;;-2.32;55.09;101520.69;4399656;32;35332;-79
2022/01/12 05:31:42;;;;;;;;;;;;;;;-2.31;55.10;101519.81;4402496;32;32920;-79
2022/01/12 05:34:11;;;;;;;;;;;;;;;-2.47;55.59;101523.53;4402102;32;34200;-79
2022/01/12 05:36:40;;;;;;;;;;;;;;;-2.46;55.66;101520.06;4404977;32;35682;-79
2022/01/12 05:39:08;;;;;;;;;;;;;;;-2.43;55.88;101525.22;4403897;32;35408;-80
2022/01/12 05:41:38;;;;;;;;;;;;;;;-2.41;56.01;101520.84;4405352;32;33344;-80
2022/01/12 05:44:08;;;;;;;;;;;;;;;-2.52;56.21;101518.37;4404485;32;32320;-79
2022/01/12 05:46:41;;;;;;;;;;;;;;;-2.33;56.00;101522.44;4387680;32;35509;-79
2022/01/12 05:49:34;;;;;;;;;;;;;;;-2.29;55.59;101520.66;4408677;32;34725;-79
2022/01/12 05:52:11;;;;;;;;;;;;;;;-2.39;55.87;101519.06;4407184;32;32856;-79
2022/01/12 05:54:40;;;;;;;;;;;;;;;-2.34;55.76;101520.72;4409632;32;34177;-79
2022/01/12 05:57:08;;;;;;;;;;;;;;;-2.41;55.86;101524.31;4392692;32;33715;-79
2022/01/12 05:59:41;;;;;;;;;;;;;;;-2.59;56.28;101526.31;4398874;32;35269;-79
2022/01/12 06:02:13;;;;;;;;;;;;;;;-2.60;56.37;101535.88;4402785;32;34210;-78
2022/01/12 06:04:43;;;;;;;;;;;;;;;-2.46;55.84;101533.09;4402550;32;33064;-79
2022/01/12 06:07:17;;;;;;;;;;;;;;;-2.36;55.34;101535.53;4406113;32;35508;-80
2022/01/12 06:09:49;;;;;;;;;;;;;;;-2.47;55.26;101536.53;4401013;32;33098;-79
2022/01/12 06:12:22;;;;;;;;;;;;;;;-2.57;55.35;101546.25;4403920;32;32292;-79
2022/01/12 06:14:52;;;;;;;;;;;;;;;-2.81;55.88;101551.75;4406383;32;33832;-79
2022/01/12 06:17:23;;;;;;;;;;;;;;;-2.74;55.98;101556.03;4390961;32;36980;-79
2022/01/12 06:19:55;;;;;;;;;;;;;;;-2.71;55.60;101566.41;4399098;32;34816;-79
2022/01/12 06:22:24;;;;;;;;;;;;;;;-2.93;56.23;101571.03;4403837;32;33692;-79
2022/01/12 06:24:56;;;;;;;;;;;;;;;-2.95;55.92;101570.19;4389798;32;37216;-79
2022/01/12 06:27:28;;;;;;;;;;;;;;;-2.56;54.55;101570.53;4403827;32;34965;-80
2022/01/12 06:31:10;;;;;;;;;;;;;;;-2.70;54.44;101578.53;4387436;32;34496;-79
2022/01/12 06:32:52;;;;;;;;;;;;;;;-2.69;53.91;101569.88;4411944;32;33426;-79
2022/01/12 06:35:20;;;;;;;;;;;;;;;-2.71;53.99;101581.19;4398672;32;34300;-79
2022/01/12 06:37:47;;;;;;;;;;;;;;;-2.93;54.74;101579.69;4395767;32;33618;-79
2022/01/12 06:40:15;;;;;;;;;;;;;;;-2.87;54.38;101579.63;4399393;32;34107;-79
2022/01/12 06:42:43;;;;;;;;;;;;;;;-3.19;55.30;101573.06;4386466;32;31774;-79
2022/01/12 06:45:10;;;;;;;;;;;;;;;-3.30;55.46;101585.31;4412704;32;34155;-79
2022/01/12 06:47:41;;;;;;;;;;;;;;;-3.07;55.06;101576.37;4406955;32;35245;-79
2022/01/12 06:50:14;;;;;;;;;;;;;;;-3.30;54.95;101590.53;4411724;32;34160;-79
2022/01/12 06:52:48;;;;;;;;;;;;;;;-3.12;55.04;101587.72;4414399;32;33422;-79
2022/01/12 06:55:18;;;;;;;;;;;;;;;-3.04;54.85;101598.94;4412003;32;34025;-79
2022/01/12 06:57:49;;;;;;;;;;;;;;;-3.05;54.86;101595.44;4413810;32;34726;-79
2022/01/12 07:00:19;;;;;;;;;;;;;;;-2.91;54.52;101593.56;4400143;32;33327;-79
2022/01/12 07:02:47;;;;;;;;;;;;;;;-2.95;54.67;101599.69;4411039;32;32509;-79
2022/01/12 07:05:15;;;;;;;;;;;;;;;-2.83;54.58;101600.41;4413864;32;34739;-79
2022/01/12 07:07:46;;;;;;;;;;;;;;;-2.77;54.35;101599.47;4393828;32;35674;-79
2022/01/12 07:10:19;;;;;;;;;;;;;;;-2.83;55.05;101600.41;4399522;32;34710;-79
2022/01/12 07:12:47;;;;;;;;;;;;;;;-2.82;55.51;101601.28;4412372;32;33911;-79
2022/01/12 07:15:15;;;;;;;;;;;;;;;-2.82;55.93;101609.94;4413688;32;35006;-79
2022/01/12 07:17:43;;;;;;;;;;;;;;;-2.72;56.11;101613.31;4399038;32;34408;-79
2022/01/12 07:20:11;;;;;;;;;;;;;;;-2.62;56.33;101613.16;4414137;32;34782;-79
2022/01/12 07:22:39;;;;;;;;;;;;;;;-2.69;56.65;101629.78;4412082;32;33938;-79
2022/01/12 07:25:07;;;;;;;;;;;;;;;-2.56;56.80;101623.53;4412092;32;34337;-79
2022/01/12 07:27:38;;;;;;;;;;;;;;;-2.61;57.20;101627.91;4399551;32;36098;-79
2022/01/12 07:30:10;;;;;;;;;;;;;;;-2.36;56.67;101634.56;4398578;32;34380;-79
2022/01/12 07:32:37;;;;;;;;;;;;;;;-2.63;58.27;101628.84;4391854;32;31209;-79
2022/01/12 07:35:08;;;;;;;;;;;;;;;-2.43;57.73;101629.44;4397337;32;33089;-79
2022/01/12 07:37:36;;;;;;;;;;;;;;;-2.34;57.80;101639.75;4397084;32;34694;-79
2022/01/12 07:40:07;;;;;;;;;;;;;;;-2.17;57.86;101643.00;4407389;32;34199;-79
2022/01/12 07:42:35;;;;;;;;;;;;;;;-2.03;57.61;101639.31;4384362;32;32520;-79
2022/01/12 07:45:09;;;;;;;;;;;;;;;-1.91;57.30;101631.31;4405446;32;33425;-79
2022/01/12 07:47:36;;;;;;;;;;;;;;;-1.94;57.36;101638.31;4396330;32;34989;-79
2022/01/12 07:50:09;;;;;;;;;;;;;;;-1.78;56.85;101640.66;4400132;32;35392;-79
2022/01/12 07:52:37;;;;;;;;;;;;;;;-1.91;57.67;101643.47;4401194;32;33232;-79
2022/01/12 07:55:06;;;;;;;;;;;;;;;-1.55;56.70;101643.81;4402131;32;33989;-79
2022/01/12 07:57:33;;;;;;;;;;;;;;;-1.95;57.50;101652.25;4402331;32;34773;-79
2022/01/12 08:00:04;;;;;;;;;;;;;;;-1.85;58.27;101648.62;4402803;32;34551;-79
2022/01/12 08:02:40;;;;;;;;;;;;;;;-1.75;58.18;101658.03;4383197;32;34468;-78
2022/01/12 08:05:09;;;;;;;;;;;;;;;-1.77;57.96;101657.19;4408814;32;34246;-79
2022/01/12 08:07:38;;;;;;;;;;;;;;;-1.56;57.76;101659.47;4410137;32;35475;-79
2022/01/12 08:10:07;;;;;;;;;;;;;;;-1.53;57.72;101657.69;4391015;32;33016;-78
2022/01/12 08:12:35;;;;;;;;;;;;;;;-1.44;57.22;101664.47;4385156;32;31294;-79
2022/01/12 08:15:04;;;;;;;;;;;;;;;-0.98;56.02;101653.25;4397818;32;34309;-79
2022/01/12 08:17:33;;;;;;;;;;;;;;;-0.92;56.40;101649.66;4404080;32;35138;-78
2022/01/12 08:20:02;;;;;;;;;;;;;;;-0.90;56.14;101648.75;4406122;32;33422;-79
2022/01/12 08:22:29;;;;;;;;;;;;;;;-0.59;55.30;101652.50;4383437;32;33361;-79
2022/01/12 08:24:57;;;;;;;;;;;;;;;-0.73;55.67;101648.44;4373404;32;35412;-78
2022/01/12 08:27:25;;;;;;;;;;;;;;;-0.64;55.73;101658.69;4396618;32;36724;-79
2022/01/12 08:29:59;;;;;;;;;;;;;;;-0.70;56.20;101664.03;4399816;32;33870;-78
2022/01/12 08:32:27;;;;;;;;;;;;;;;-0.62;54.91;101677.81;4410794;32;34006;-78
2022/01/12 08:34:56;;;;;;;;;;;;;;;-0.50;55.24;101680.22;4409957;32;33570;-78
2022/01/12 08:37:24;;;;;;;;;;;;;;;-0.33;54.28;101678.09;4411219;32;35214;-78
2022/01/12 08:39:52;;;;;;;;;;;;;;;-0.40;54.78;101680.00;4412118;32;34855;-78
2022/01/12 08:42:19;;;;;;;;;;;;;;;-0.41;54.84;101675.66;4410723;32;32759;-78
2022/01/12 08:44:47;;;;;;;;;;;;;;;-0.49;55.21;101680.16;4411518;32;33790;-78
2022/01/12 08:47:15;;;;;;;;;;;;;;;-0.19;54.64;101684.78;4411515;32;35074;-78
2022/01/12 08:49:42;;;;;;;;;;;;;;;-0.03;54.04;101680.94;4412041;32;34221;-78
2022/01/12 08:52:10;;;;;;;;;;;;;;;0.27;53.58;101668.06;4413174;32;33070;-78
2022/01/12 08:54:38;;;;;;;;;;;;;;;-0.08;53.74;101674.97;4412881;32;34023;-79
2022/01/12 08:57:05;;;;;;;;;;;;;;;0.11;54.05;101671.06;4411463;32;35330;-78
2022/01/12 08:59:33;;;;;;;;;;;;;;;0.07;53.63;101682.47;4413107;32;34874;-78
2022/01/12 09:02:01;;;;;;;;;;;;;;;-0.09;54.10;101677.63;4411702;32;33604;-77
2022/01/12 09:04:29;;;;;;;;;;;;;;;0.10;55.44;101680.66;4411894;32;33957;-77
2022/01/12 09:06:57;;;;;;;;;;;;;;;0.37;53.45;101674.81;4412871;32;34664;-77
2022/01/12 09:09:25;;;;;;;;;;;;;;;0.23;53.60;101673.41;4410825;32;35590;-78
2022/01/12 09:11:55;;;;;;;;;;;;;;;0.32;53.91;101670.56;4398316;32;31241;-77
2022/01/12 09:14:22;;;;;;;;;;;;;;;0.38;53.56;101670.44;4400408;32;34354;-78
2022/01/12 09:16:52;;;;;;;;;;;;;;;0.42;53.98;101659.88;4412851;32;35655;-78
2022/01/12 09:19:36;;;;;;;;;;;;;;;0.68;53.72;101662.69;4399970;32;33101;-79
2022/01/12 09:22:13;;;;;;;;;;;;;;;0.98;53.42;101666.31;4414472;32;34224;-79
2022/01/12 09:24:42;;;;;;;;;;;;;;;0.98;52.97;101666.31;4400470;32;32481;-79
2022/01/12 09:27:09;;;;;;;;;;;;;;;0.97;52.95;101657.56;4413567;32;34816;-79
2022/01/12 09:29:37;;;;;;;;;;;;;;;1.03;52.46;101660.06;4400012;32;35599;-79
2022/01/12 09:32:04;;;;;;;;;;;;;;;0.81;52.84;101661.50;4413222;32;33065;-79
2022/01/12 09:34:32;;;;;;;;;;;;;;;1.03;52.97;101664.44;4415025;32;33345;-79
2022/01/12 09:36:59;;;;;;;;;;;;;;;1.19;52.31;101666.63;4413573;32;35683;-79
2022/01/12 09:39:30;;;;;;;;;;;;;;;1.35;51.64;101660.06;4412914;32;34322;-79
2022/01/12 09:41:59;;;;;;;;;;;;;;;1.16;51.90;101653.59;4415074;32;32387;-79
2022/01/12 09:44:33;;;;;;;;;;;;;;;1.51;51.75;101650.00;4412836;32;33376;-79
2022/01/12 09:47:02;;;;;;;;;;;;;;;1.48;51.86;101656.19;4413888;32;34583;-79
2022/01/12 09:49:30;;;;;;;;;;;;;;;1.36;52.15;101661.78;4414974;32;34526;-78
2022/01/12 09:51:58;;;;;;;;;;;;;;;1.85;51.55;101662.12;4396434;32;32402;-79
2022/01/12 09:54:28;;;;;;;;;;;;;;;1.62;50.94;101667.16;4413375;32;34170;-79
2022/01/12 09:56:57;;;;;;;;;;;;;;;1.74;50.44;101661.56;4412965;32;34712;-79
2022/01/12 09:59:25;;;;;;;;;;;;;;;1.52;50.73;101665.69;4412682;32;35860;-79
2022/01/12 10:01:59;;;;;;;;;;;;;;;1.71;50.39;101672.12;4400514;32;33080;-79
2022/01/12 10:04:28;;;;;;;;;;;;;;;1.67;50.87;101670.50;4413115;32;33251;-79
2022/01/12 10:07:00;;;;;;;;;;;;;;;1.96;50.27;101669.69;4400430;32;34839;-79
2022/01/12 10:09:38;;;;;;;;;;;;;;;1.53;50.14;101671.81;4388152;32;33002;-79
2022/01/12 10:12:14;;;;;;;;;;;;;;;2.10;49.41;101664.88;4414499;32;33955;-79
2022/01/12 10:14:45;;;;;;;;;;;;;;;1.84;50.62;101675.28;4412888;32;35307;-79
2022/01/12 10:17:13;;;;;;;;;;;;;;;2.14;49.69;101656.84;4400297;32;33652;-79
2022/01/12 10:19:40;;;;;;;;;;;;;;;2.44;48.98;101658.53;4400665;32;33937;-79
2022/01/12 10:22:11;;;;;;;;;;;;;;;2.13;49.55;101659.50;4412604;32;32232;-78
2022/01/12 10:24:38;;;;;;;;;;;;;;;2.21;48.29;101661.03;4413077;32;33941;-78
2022/01/12 10:27:12;;;;;;;;;;;;;;;2.02;48.66;101657.22;4385579;32;34158;-78
2022/01/12 10:29:40;;;;;;;;;;;;;;;2.44;48.25;101661.16;4410715;32;33281;-78
2022/01/12 10:32:12;;;;;;;;;;;;;;;2.28;48.93;101664.31;4406901;32;33902;-79
2022/01/12 10:34:40;;;;;;;;;;;;;;;2.65;47.02;101657.84;4408141;32;34169;-79
2022/01/12 10:37:08;;;;;;;;;;;;;;;2.70;46.99;101671.69;4405880;32;35294;-79
2022/01/12 10:39:46;;;;;;;;;;;;;;;2.66;46.19;101656.06;4408489;32;34412;-79
2022/01/12 10:42:15;;;;;;;;;;;;;;;2.57;45.91;101645.84;4407913;32;33059;-79
2022/01/12 10:44:50;;;;;;;;;;;;;;;2.17;47.46;101656.75;4402378;32;33409;-78
2022/01/12 10:47:19;;;;;;;;;;;;;;;2.45;47.36;101647.09;4390045;32;34681;-79
2022/01/12 10:50:05;;;;;;;;;;;;;;;2.97;46.73;101652.38;4392515;32;33861;-78
2022/01/12 10:52:34;;;;;;;;;;;;;;;3.24;45.67;101654.06;4409769;32;33430;-79
2022/01/12 10:55:04;;;;;;;;;;;;;;;3.26;45.07;101644.34;4392329;32;32371;-78
2022/01/12 10:57:33;;;;;;;;;;;;;;;3.47;45.23;101643.56;4407974;32;34140;-78
2022/01/12 11:00:03;;;;;;;;;;;;;;;3.74;44.06;101640.81;4410501;32;33892;-78
2022/01/12 11:02:31;;;;;;;;;;;;;;;3.59;43.38;101646.63;4402628;32;33033;-78
2022/01/12 11:04:59;;;;;;;;;;;;;;;3.63;43.32;101640.34;4401249;32;33555;-78
2022/01/12 11:07:27;;;;;;;;;;;;;;;3.61;43.70;101639.53;4392166;32;35769;-78
2022/01/12 11:09:55;;;;;;;;;;;;;;;3.97;42.67;101643.41;4409861;32;34966;-79
2022/01/12 11:12:23;;;;;;;;;;;;;;;3.90;43.02;101630.56;4401876;32;33265;-78
2022/01/12 11:14:51;;;;;;;;;;;;;;;3.84;42.43;101644.81;4386385;32;32098;-79
2022/01/12 11:17:19;;;;;;;;;;;;;;;3.50;43.32;101652.22;4401145;32;35020;-79
2022/01/12 11:19:55;;;;;;;;;;;;;;;3.50;43.72;101648.75;4389522;32;33036;-78
2022/01/12 11:22:42;;;;;;;;;;;;;;;3.53;44.78;101649.50;4400895;32;34017;-79
2022/01/12 11:25:19;;;;;;;;;;;;;;;3.85;43.33;101650.91;4403082;32;34033;-79
2022/01/12 11:27:51;;;;;;;;;;;;;;;3.89;43.54;101645.47;4402787;32;34433;-79
2022/01/12 11:30:21;;;;;;;;;;;;;;;3.81;42.46;101637.03;4406376;32;33841;-79
2022/01/12 11:32:56;;;;;;;;;;;;;;;3.51;43.41;101646.03;4401632;32;32910;-79
2022/01/12 11:35:27;;;;;;;;;;;;;;;2.89;45.02;101644.75;4406919;32;34686;-79
2022/01/12 11:37:59;;;;;;;;;;;;;;;3.66;44.53;101647.25;4387969;32;34673;-78
2022/01/12 11:40:34;;;;;;;;;;;;;;;2.67;47.68;101640.25;4401621;32;34680;-79
2022/01/12 11:43:06;;;;;;;;;;;;;;;2.96;46.45;101641.00;4398306;32;33422;-79
2022/01/12 11:45:33;;;;;;;;;;;;;;;3.45;45.63;101637.50;4404317;32;34174;-79
2022/01/12 11:48:01;;;;;;;;;;;;;;;3.67;45.10;101630.53;4406317;32;35172;-78
2022/01/12 11:50:29;;;;;;;;;;;;;;;4.10;44.05;101633.28;4403110;32;34314;-78
2022/01/12 11:52:56;;;;;;;;;;;;;;;4.14;44.90;101627.00;4406142;32;33318;-79
2022/01/12 11:55:40;;;;;;;;;;;;;;;3.63;45.05;101628.94;4407191;32;33685;-79
2022/01/12 11:58:15;;;;;;;;;;;;;;;4.22;43.41;101617.84;4402155;32;34831;-79
2022/01/12 12:00:43;;;;;;;;;;;;;;;4.18;44.12;101616.28;4410859;32;34058;-78
2022/01/12 12:03:15;;;;;;;;;;;;;;;4.46;43.55;101611.62;4408730;32;33614;-79
2022/01/12 12:05:43;;;;;;;;;;;;;;;4.54;42.78;101622.69;4405645;32;34157;-79
2022/01/12 12:08:11;;;;;;;;;;;;;;;4.74;42.98;101619.22;4398604;32;35857;-79
2022/01/12 12:10:39;;;;;;;;;;;;;;;4.73;42.95;101617.53;4402549;32;34495;-79
2022/01/12 12:13:07;;;;;;;;;;;;;;;4.90;42.11;101612.41;4398989;32;32867;-79
2022/01/12 12:15:34;;;;;;;;;;;;;;;5.18;41.37;101610.31;4389616;32;32284;-78
2022/01/12 12:18:04;;;;;;;;;;;;;;;4.98;41.10;101608.50;4402376;32;36173;-78
2022/01/12 12:20:32;;;;;;;;;;;;;;;5.20;41.42;101608.44;4406288;32;34691;-78
2022/01/12 12:23:00;;;;;;;;;;;;;;;5.19;41.20;101615.50;4401270;32;34135;-79
2022/01/12 12:25:28;;;;;;;;;;;;;;;5.15;40.15;101607.78;4402520;32;34192;-79
2022/01/12 12:28:00;;;;;;;;;;;;;;;5.23;40.40;101616.22;4403011;32;35591;-78
2022/01/12 12:30:29;;;;;;;;;;;;;;;4.92;41.03;101615.84;4405944;32;34683;-79
2022/01/12 12:33:04;;;;;;;;;;;;;;;4.70;41.21;101615.03;4399032;32;32437;-79
2022/01/12 12:35:32;;;;;;;;;;;;;;;4.71;41.35;101625.47;4412479;32;34354;-79
2022/01/12 12:38:04;;;;;;;;;;;;;;;4.74;41.30;101627.16;4399186;32;34422;-78
2022/01/12 12:40:38;;;;;;;;;;;;;;;4.75;41.77;101620.94;4398889;32;33599;-79
2022/01/12 12:43:13;;;;;;;;;;;;;;;4.76;41.91;101631.44;4412034;32;33360;-78
2022/01/12 12:45:46;;;;;;;;;;;;;;;4.29;41.08;101629.00;4412745;32;34159;-79
2022/01/12 12:48:14;;;;;;;;;;;;;;;4.18;41.45;101628.56;4413010;32;34935;-76
2022/01/12 12:50:43;;;;;;;;;;;;;;;4.67;40.64;101621.28;4413195;32;35070;-76
2022/01/12 12:53:11;;;;;;;;;;;;;;;4.58;41.37;101618.12;4413284;32;33355;-76
2022/01/12 12:55:41;;;;;;;;;;;;;;;4.93;40.42;101618.41;4413285;32;33932;-76
2022/01/12 12:58:09;;;;;;;;;;;;;;;5.00;40.67;101613.72;4394628;32;33390;-76
2022/01/12 13:00:37;;;;;;;;;;;;;;;5.32;39.30;101608.78;4411715;32;35075;-76
2022/01/12 13:03:05;;;;;;;;;;;;;;;5.25;39.61;101606.44;4398723;32;32592;-76
2022/01/12 13:05:34;;;;;;;;;;;;;;;5.22;39.16;101609.22;4411583;32;33762;-76
2022/01/12 13:08:01;;;;;;;;;;;;;;;4.93;39.37;101615.78;4411536;32;35318;-76
2022/01/12 13:10:30;;;;;;;;;;;;;;;5.00;39.01;101611.94;4411174;32;35455;-76
2022/01/12 13:12:59;;;;;;;;;;;;;;;4.83;39.33;101606.50;4398760;32;31562;-78
2022/01/12 13:15:27;;;;;;;;;;;;;;;5.26;39.48;101608.19;4411506;32;33865;-79
2022/01/12 13:17:59;;;;;;;;;;;;;;;4.82;39.16;101625.06;4411001;32;36831;-78
2022/01/12 13:23:18;;;;;;;;;;;;;;;5.60;39.41;101612.72;4398911;32;31239;-79
2022/01/12 13:25:46;;;;;;;;;;;;;;;5.33;39.08;101613.13;4412222;32;34557;-78
2022/01/12 13:28:16;;;;;;;;;;;;;;;5.56;39.33;101611.16;4411372;32;35641;-79
2022/01/12 13:30:48;;;;;;;;;;;;;;;6.15;38.12;101611.94;4411151;32;33945;-78
2022/01/12 13:33:23;;;;;;;;;;;;;;;7.48;36.33;101598.97;4411374;32;33149;-79
2022/01/12 13:35:50;;;;;;;;;;;;;;;7.98;34.26;101602.38;4411431;32;34803;-79
2022/01/12 13:38:29;;;;;;;;;;;;;;;7.64;35.01;101601.62;4398052;32;33598;-79
2022/01/12 13:41:08;;;;;;;;;;;;;;;7.30;35.05;101612.28;4398316;32;34303;-79
2022/01/12 13:43:36;;;;;;;;;;;;;;;7.37;34.72;101603.09;4398162;32;32921;-79
2022/01/12 13:46:11;;;;;;;;;;;;;;;8.22;33.80;101601.03;4410718;32;33876;-79
2022/01/12 13:49:09;;;;;;;;;;;;;;;9.43;31.55;101599.09;4411114;32;34984;-78
2022/01/12 13:51:37;;;;;;;;;;;;;;;9.52;30.90;101589.69;4411299;32;34132;-79
2022/01/12 13:54:06;;;;;;;;;;;;;;;9.80;30.16;101587.88;4412454;32;32209;-80
2022/01/12 13:56:44;;;;;;;;;;;;;;;9.67;30.10;101594.06;4398022;32;33409;-79
2022/01/12 13:59:18;;;;;;;;;;;;;;;9.50;30.45;101600.44;4405004;32;34744;-78
2022/01/12 14:01:45;;;;;;;;;;;;;;;9.10;31.23;101595.78;4400201;32;32893;-79
2022/01/12 14:04:24;;;;;;;;;;;;;;;9.66;30.13;101595.00;4400264;32;33695;-78
2022/01/12 14:06:53;;;;;;;;;;;;;;;9.94;29.79;101590.53;4414726;32;33629;-78
2022/01/12 14:09:27;;;;;;;;;;;;;;;9.73;29.89;101599.00;4399919;32;35440;-79
2022/01/12 14:11:55;;;;;;;;;;;;;;;9.23;30.26;101602.09;4415433;32;34949;-79
2022/01/12 14:14:23;;;;;;;;;;;;;;;8.71;31.19;101613.22;4413199;32;33901;-77
2022/01/12 14:16:50;;;;;;;;;;;;;;;9.12;30.86;101614.31;4412748;32;34576;-78